Time;durP1;ratioP1;P1;durP2;ratioP2;P2;SDS_P1;SDS_P2;PMS_P1;PMS_P2;Temp;Humidity;BMP_temperature;BMP_pressure;BME280_temperature;BME280_humidity;BME280_pressure;Samples;Min_cycle;Max_cycle;Signal;HPM_P1;HPM_P2
2022/04/30 00:00:13;;;;;;;4.97;3.23;;;;;;;;;;5087422;28;20468;-73
2022/04/30 00:02:40;;;;;;;4.40;3.27;;;;;;;;;;5092492;28;20564;-73
2022/04/30 00:05:08;;;;;;;4.20;3.80;;;;;;;;;;5081161;28;20539;-74
2022/04/30 00:07:35;;;;;;;3.60;3.30;;;;;;;;;;5075413;28;20522;-74
2022/04/30 00:10:03;;;;;;;4.37;3.00;;;;;;;;;;5072555;28;20481;-74
2022/04/30 00:12:31;;;;;;;6.57;3.60;;;;;;;;;;5076467;28;20445;-72
2022/04/30 00:14:58;;;;;;;3.40;3.10;;;;;;;;;;5076670;28;20438;-73
2022/04/30 00:17:26;;;;;;;3.33;3.10;;;;;;;;;;5076653;28;20454;-76
2022/04/30 00:19:53;;;;;;;3.67;3.33;;;;;;;;;;5071071;28;20444;-74
2022/04/30 00:22:20;;;;;;;3.97;3.60;;;;;;;;;;5083241;28;20568;-74
2022/04/30 00:24:48;;;;;;;3.37;3.07;;;;;;;;;;5085152;28;20525;-74
2022/04/30 00:27:15;;;;;;;3.60;3.30;;;;;;;;;;5076330;28;20461;-74
2022/04/30 00:29:46;;;;;;;3.70;3.40;;;;;;;;;;5069905;28;20524;-74
2022/04/30 00:32:14;;;;;;;4.10;2.80;;;;;;;;;;5083734;28;20439;-74
2022/04/30 00:34:42;;;;;;;2.77;2.57;;;;;;;;;;5087681;28;20527;-75
2022/04/30 00:37:09;;;;;;;4.33;3.93;;;;;;;;;;5063965;28;20797;-74
2022/04/30 00:39:36;;;;;;;3.70;3.20;;;;;;;;;;5059264;28;20443;-74
2022/04/30 00:42:04;;;;;;;3.93;3.20;;;;;;;;;;5054106;28;20481;-74
2022/04/30 00:44:31;;;;;;;4.03;3.73;;;;;;;;;;5066640;28;20479;-74
2022/04/30 00:46:59;;;;;;;4.20;3.80;;;;;;;;;;5085640;28;20442;-73
2022/04/30 00:49:26;;;;;;;3.67;3.20;;;;;;;;;;5064920;28;20584;-74
2022/04/30 00:51:54;;;;;;;4.53;3.37;;;;;;;;;;5062111;28;20536;-74
2022/04/30 00:54:22;;;;;;;7.30;4.70;;;;;;;;;;5061661;28;20951;-75
2022/04/30 00:56:49;;;;;;;3.97;3.60;;;;;;;;;;5080870;28;20748;-74
2022/04/30 00:59:18;;;;;;;3.60;3.30;;;;;;;;;;5069308;28;20566;-74
2022/04/30 01:01:45;;;;;;;3.63;3.27;;;;;;;;;;5065944;28;20484;-74
2022/04/30 01:04:14;;;;;;;3.43;3.10;;;;;;;;;;5082549;28;20448;-74
2022/04/30 01:06:49;;;;;;;4.13;3.63;;;;;;;;;;5091603;28;20824;-75
2022/04/30 01:09:16;;;;;;;5.13;3.47;;;;;;;;;;5060411;28;20447;-75
2022/04/30 01:11:44;;;;;;;3.57;3.27;;;;;;;;;;5053881;28;20456;-74
2022/04/30 01:14:12;;;;;;;4.40;3.70;;;;;;;;;;5078321;28;20444;-76
2022/04/30 01:16:39;;;;;;;5.30;3.90;;;;;;;;;;5074275;28;20445;-74
2022/04/30 01:19:08;;;;;;;5.77;4.37;;;;;;;;;;5089369;28;20517;-74
2022/04/30 01:21:37;;;;;;;7.13;4.80;;;;;;;;;;5067943;28;20504;-74
2022/04/30 01:24:06;;;;;;;7.60;4.90;;;;;;;;;;5074687;28;20535;-74
2022/04/30 01:26:34;;;;;;;6.13;4.53;;;;;;;;;;5067465;28;20952;-74
2022/04/30 01:29:01;;;;;;;6.70;5.30;;;;;;;;;;5066845;28;20445;-74
2022/04/30 01:39:44;;;;;;;13.67;5.60;;;;;;;;;;5075824;28;20435;-75
2022/04/30 01:42:12;;;;;;;8.97;6.30;;;;;;;;;;5070072;28;20572;-75
2022/04/30 01:44:40;;;;;;;7.77;6.70;;;;;;;;;;5073456;28;20440;-74
2022/04/30 01:47:08;;;;;;;9.57;5.43;;;;;;;;;;5076461;28;20456;-74
2022/04/30 01:49:35;;;;;;;9.00;5.80;;;;;;;;;;5078198;28;20888;-75
2022/04/30 01:52:07;;;;;;;8.97;6.50;;;;;;;;;;5081593;28;20926;-75
2022/04/30 01:54:34;;;;;;;8.83;5.40;;;;;;;;;;5073306;28;20449;-75
2022/04/30 01:57:03;;;;;;;14.73;6.87;;;;;;;;;;5072827;28;20552;-75
2022/04/30 01:59:30;;;;;;;13.73;6.70;;;;;;;;;;5066464;28;20478;-72
2022/04/30 02:01:59;;;;;;;9.13;6.17;;;;;;;;;;5076862;28;20603;-75
2022/04/30 02:04:27;;;;;;;8.00;5.70;;;;;;;;;;5065399;28;20471;-75
2022/04/30 02:06:54;;;;;;;11.63;7.80;;;;;;;;;;5072368;28;20449;-74
2022/04/30 02:09:22;;;;;;;11.90;7.20;;;;;;;;;;5063023;28;20438;-75
2022/04/30 02:11:50;;;;;;;10.80;5.93;;;;;;;;;;5064216;28;20990;-75
2022/04/30 02:14:19;;;;;;;10.63;7.30;;;;;;;;;;5085462;28;20477;-75
2022/04/30 02:16:46;;;;;;;10.67;5.73;;;;;;;;;;5064111;28;20442;-75
2022/04/30 02:19:14;;;;;;;8.10;6.03;;;;;;;;;;5080944;28;20454;-75
2022/04/30 02:21:42;;;;;;;12.53;6.17;;;;;;;;;;5081713;28;20525;-75
2022/04/30 02:24:09;;;;;;;8.10;6.00;;;;;;;;;;5076379;28;20955;-76
2022/04/30 02:26:37;;;;;;;11.27;6.37;;;;;;;;;;5085446;28;20572;-75
2022/04/30 02:29:04;;;;;;;8.53;5.90;;;;;;;;;;5082305;28;20540;-75
2022/04/30 02:31:33;;;;;;;7.83;7.03;;;;;;;;;;5075628;28;20448;-73
2022/04/30 02:34:00;;;;;;;8.30;5.57;;;;;;;;;;5080359;28;20475;-74
2022/04/30 02:36:27;;;;;;;12.40;7.40;;;;;;;;;;5073851;28;20443;-75
2022/04/30 02:38:55;;;;;;;9.13;7.23;;;;;;;;;;5072586;28;20449;-75
2022/04/30 02:41:22;;;;;;;6.40;5.00;;;;;;;;;;5086203;28;20451;-75
2022/04/30 02:43:50;;;;;;;8.90;6.20;;;;;;;;;;5081613;28;20495;-76
2022/04/30 02:46:18;;;;;;;6.40;5.40;;;;;;;;;;5083397;28;20763;-75
2022/04/30 02:48:46;;;;;;;8.20;6.53;;;;;;;;;;5067702;28;20525;-74
2022/04/30 02:51:15;;;;;;;9.20;4.90;;;;;;;;;;5081739;28;20532;-76
2022/04/30 02:53:42;;;;;;;7.67;5.10;;;;;;;;;;5071196;28;20452;-75
2022/04/30 02:56:10;;;;;;;9.90;6.33;;;;;;;;;;5074217;28;20540;-76
2022/04/30 03:01:23;;;;;;;11.30;6.73;;;;;;;;;;5061490;28;20183;-76
2022/04/30 03:03:52;;;;;;;7.20;5.73;;;;;;;;;;5077517;28;20977;-76
2022/04/30 03:06:19;;;;;;;7.27;5.30;;;;;;;;;;5069305;28;20521;-76
2022/04/30 03:08:47;;;;;;;7.73;5.53;;;;;;;;;;5080968;28;20510;-74
2022/04/30 03:11:14;;;;;;;10.77;5.97;;;;;;;;;;5085113;28;20496;-74
2022/04/30 03:13:42;;;;;;;8.07;6.37;;;;;;;;;;5086729;28;20472;-75
2022/04/30 03:21:44;;;;;;;9.03;5.90;;;;;;;;;;5066858;28;20447;-75
2022/04/30 03:24:12;;;;;;;12.03;6.40;;;;;;;;;;5059985;28;20816;-76
2022/04/30 03:26:39;;;;;;;15.40;7.40;;;;;;;;;;5078225;28;20808;-75
2022/04/30 03:29:06;;;;;;;9.03;5.67;;;;;;;;;;5075324;28;20478;-75
2022/04/30 03:31:34;;;;;;;10.97;6.30;;;;;;;;;;5083601;28;20503;-75
2022/04/30 03:34:03;;;;;;;13.37;7.33;;;;;;;;;;5083615;28;20444;-75
2022/04/30 03:36:30;;;;;;;10.83;5.70;;;;;;;;;;5083155;28;20443;-74
2022/04/30 03:38:57;;;;;;;10.17;5.37;;;;;;;;;;5084914;28;20766;-75
2022/04/30 03:41:24;;;;;;;9.10;5.40;;;;;;;;;;5088062;28;20460;-75
2022/04/30 03:43:52;;;;;;;15.70;6.53;;;;;;;;;;5055260;28;20477;-75
2022/04/30 03:46:19;;;;;;;7.43;5.83;;;;;;;;;;5073834;28;20847;-75
2022/04/30 03:48:51;;;;;;;8.97;7.20;;;;;;;;;;5073726;28;20451;-75
2022/04/30 03:51:20;;;;;;;9.13;7.03;;;;;;;;;;5087415;28;20436;-75
2022/04/30 03:53:48;;;;;;;15.50;7.23;;;;;;;;;;5088256;28;20849;-74
2022/04/30 03:56:16;;;;;;;10.93;7.87;;;;;;;;;;5072630;28;20445;-77
2022/04/30 03:58:44;;;;;;;14.03;8.20;;;;;;;;;;5081283;28;20474;-74
2022/04/30 04:01:13;;;;;;;10.70;6.60;;;;;;;;;;5088528;28;20441;-75
2022/04/30 04:03:40;;;;;;;14.30;8.30;;;;;;;;;;5065810;28;20506;-75
2022/04/30 04:06:08;;;;;;;10.57;7.07;;;;;;;;;;5080551;28;20501;-74
2022/04/30 04:08:36;;;;;;;13.87;7.93;;;;;;;;;;5079247;28;20496;-75
2022/04/30 04:11:10;;;;;;;13.27;7.57;;;;;;;;;;5074629;28;20536;-75
2022/04/30 04:19:06;;;;;;;12.67;7.73;;;;;;;;;;5068598;28;20539;-75
2022/04/30 04:21:34;;;;;;;12.50;7.30;;;;;;;;;;5086896;28;20434;-75
2022/04/30 04:26:48;;;;;;;10.23;7.60;;;;;;;;;;5081678;28;20780;-76
2022/04/30 04:29:16;;;;;;;11.10;7.70;;;;;;;;;;5082553;28;20445;-75
2022/04/30 04:31:43;;;;;;;13.47;8.40;;;;;;;;;;5080568;28;20890;-76
2022/04/30 04:34:11;;;;;;;12.53;7.80;;;;;;;;;;5092302;28;20503;-76
2022/04/30 04:36:38;;;;;;;12.73;8.70;;;;;;;;;;5081752;28;20438;-76
2022/04/30 04:39:10;;;;;;;13.40;8.93;;;;;;;;;;5078293;28;20560;-76
2022/04/30 04:41:37;;;;;;;13.33;8.20;;;;;;;;;;5073556;28;20436;-76
2022/04/30 04:44:05;;;;;;;14.77;9.13;;;;;;;;;;5081265;28;20563;-75
2022/04/30 04:46:32;;;;;;;9.60;7.03;;;;;;;;;;5080853;28;20462;-74
2022/04/30 04:48:59;;;;;;;10.13;6.80;;;;;;;;;;5078880;28;20433;-74
2022/04/30 04:51:27;;;;;;;12.77;7.97;;;;;;;;;;5070353;28;20529;-75
2022/04/30 04:53:54;;;;;;;8.90;7.60;;;;;;;;;;5076055;28;20458;-76
2022/04/30 04:56:22;;;;;;;11.93;8.30;;;;;;;;;;5066345;28;20438;-75
2022/04/30 04:58:50;;;;;;;12.60;7.17;;;;;;;;;;5044861;28;1135629;-76
2022/04/30 05:01:17;;;;;;;18.23;8.83;;;;;;;;;;5079732;28;20188;-74
2022/04/30 05:03:44;;;;;;;12.00;8.47;;;;;;;;;;5058310;28;20570;-78
2022/04/30 05:06:11;;;;;;;9.67;7.67;;;;;;;;;;5080689;28;20453;-78
2022/04/30 05:08:38;;;;;;;12.93;7.97;;;;;;;;;;5070423;28;20444;-76
2022/04/30 05:11:06;;;;;;;13.23;7.93;;;;;;;;;;5070806;28;20446;-77
2022/04/30 05:13:34;;;;;;;11.33;8.63;;;;;;;;;;5057477;28;20448;-76
2022/04/30 05:16:01;;;;;;;10.10;7.50;;;;;;;;;;5075316;28;20453;-77
2022/04/30 05:18:29;;;;;;;11.20;8.40;;;;;;;;;;5086133;28;20450;-75
2022/04/30 05:20:56;;;;;;;11.83;7.53;;;;;;;;;;5081930;28;20441;-77
2022/04/30 05:23:23;;;;;;;10.97;8.77;;;;;;;;;;5087984;28;20569;-77
2022/04/30 05:25:50;;;;;;;9.70;7.10;;;;;;;;;;5081208;28;20460;-77
2022/04/30 05:28:17;;;;;;;15.07;7.97;;;;;;;;;;5090007;28;20453;-77
2022/04/30 05:30:46;;;;;;;10.00;7.40;;;;;;;;;;5076890;28;20505;-77
2022/04/30 05:33:13;;;;;;;10.73;8.10;;;;;;;;;;5086780;28;20449;-77
2022/04/30 05:35:40;;;;;;;15.40;7.93;;;;;;;;;;5074970;28;20454;-77
2022/04/30 05:38:07;;;;;;;13.40;7.80;;;;;;;;;;5081456;28;20442;-77
2022/04/30 05:40:35;;;;;;;11.43;6.93;;;;;;;;;;5093537;28;21011;-76
2022/04/30 05:43:02;;;;;;;13.77;8.23;;;;;;;;;;5089248;28;20442;-77
2022/04/30 05:45:29;;;;;;;12.93;8.60;;;;;;;;;;5077412;28;20528;-75
2022/04/30 05:47:57;;;;;;;14.70;7.70;;;;;;;;;;5066442;28;20459;-78
2022/04/30 05:50:25;;;;;;;12.70;8.10;;;;;;;;;;5069773;28;20545;-77
2022/04/30 05:52:53;;;;;;;12.60;9.10;;;;;;;;;;5080381;28;20445;-77
2022/04/30 05:55:20;;;;;;;12.10;8.10;;;;;;;;;;5064223;28;20447;-76
2022/04/30 05:57:47;;;;;;;12.20;7.33;;;;;;;;;;5081198;28;20540;-75
2022/04/30 06:00:15;;;;;;;9.93;7.47;;;;;;;;;;5076254;28;20440;-76
2022/04/30 06:02:42;;;;;;;10.30;7.33;;;;;;;;;;5075296;28;20448;-76
2022/04/30 06:05:12;;;;;;;9.73;6.60;;;;;;;;;;5073844;28;20569;-76
2022/04/30 06:07:39;;;;;;;13.83;8.23;;;;;;;;;;5052293;28;20957;-75
2022/04/30 06:10:06;;;;;;;10.40;7.53;;;;;;;;;;5066316;28;20926;-76
2022/04/30 06:12:34;;;;;;;10.30;6.47;;;;;;;;;;5078549;28;20450;-75
2022/04/30 06:15:01;;;;;;;12.37;6.70;;;;;;;;;;5074027;28;20459;-75
2022/04/30 06:17:29;;;;;;;13.13;8.50;;;;;;;;;;5071974;28;20450;-75
2022/04/30 06:19:56;;;;;;;9.83;6.80;;;;;;;;;;5080650;28;20505;-76
2022/04/30 06:22:24;;;;;;;6.57;5.50;;;;;;;;;;5073890;28;20468;-74
2022/04/30 06:24:52;;;;;;;16.50;8.10;;;;;;;;;;5081773;28;20478;-75
2022/04/30 06:27:20;;;;;;;8.93;7.23;;;;;;;;;;5090723;28;20449;-75
2022/04/30 06:29:49;;;;;;;10.77;7.40;;;;;;;;;;5076591;28;20480;-74
2022/04/30 06:32:16;;;;;;;8.20;5.90;;;;;;;;;;5078744;28;20456;-75
2022/04/30 06:34:44;;;;;;;11.50;7.00;;;;;;;;;;5076413;28;20446;-76
2022/04/30 06:37:11;;;;;;;9.90;7.50;;;;;;;;;;5065721;28;20454;-76
2022/04/30 06:39:39;;;;;;;10.00;6.80;;;;;;;;;;5057404;28;20458;-76
2022/04/30 06:42:07;;;;;;;11.30;7.03;;;;;;;;;;5066564;28;20856;-76
2022/04/30 06:44:34;;;;;;;10.97;7.37;;;;;;;;;;5071955;28;20797;-77
2022/04/30 06:47:01;;;;;;;12.07;8.17;;;;;;;;;;5062668;28;20549;-78
2022/04/30 06:49:28;;;;;;;15.10;7.47;;;;;;;;;;5064402;28;20471;-74
2022/04/30 06:51:56;;;;;;;7.57;5.90;;;;;;;;;;5075237;28;20534;-74
2022/04/30 06:57:11;;;;;;;8.70;6.40;;;;;;;;;;5066113;28;20614;-73
2022/04/30 06:59:40;;;;;;;8.80;6.30;;;;;;;;;;5081842;28;20479;-74
2022/04/30 07:02:12;;;;;;;8.93;6.30;;;;;;;;;;5074306;28;20936;-75
2022/04/30 07:04:39;;;;;;;7.67;6.20;;;;;;;;;;5085963;28;20509;-76
2022/04/30 07:07:07;;;;;;;10.33;8.03;;;;;;;;;;5082066;28;20447;-76
2022/04/30 07:09:34;;;;;;;12.00;8.07;;;;;;;;;;5080382;28;20440;-74
2022/04/30 07:12:04;;;;;;;7.90;6.17;;;;;;;;;;5079736;28;20536;-76
2022/04/30 07:14:35;;;;;;;10.07;6.50;;;;;;;;;;5069177;28;20525;-71
2022/04/30 07:17:02;;;;;;;9.73;6.83;;;;;;;;;;5062892;28;20441;-74
2022/04/30 07:19:30;;;;;;;7.50;5.63;;;;;;;;;;5089625;28;20526;-73
2022/04/30 07:21:57;;;;;;;8.97;6.83;;;;;;;;;;5072918;28;20523;-75
2022/04/30 07:24:24;;;;;;;8.70;6.23;;;;;;;;;;5071877;28;20489;-75
2022/04/30 07:26:51;;;;;;;9.40;6.67;;;;;;;;;;5066486;28;20465;-74
2022/04/30 07:29:19;;;;;;;10.10;6.90;;;;;;;;;;5074290;28;20534;-75
2022/04/30 07:31:47;;;;;;;11.87;7.00;;;;;;;;;;5081805;28;20451;-74
2022/04/30 07:34:14;;;;;;;10.83;7.70;;;;;;;;;;5073253;28;20447;-74
2022/04/30 07:36:41;;;;;;;6.20;5.27;;;;;;;;;;5073848;28;20842;-75
2022/04/30 07:39:09;;;;;;;10.80;6.90;;;;;;;;;;5073195;28;20527;-74
2022/04/30 07:41:36;;;;;;;7.87;5.73;;;;;;;;;;5066671;28;20451;-74
2022/04/30 07:44:03;;;;;;;9.77;6.83;;;;;;;;;;5088673;28;20468;-74
2022/04/30 07:46:31;;;;;;;8.70;6.60;;;;;;;;;;5080916;28;20447;-73
2022/04/30 07:49:00;;;;;;;9.00;5.97;;;;;;;;;;5094279;28;20934;-75
2022/04/30 07:51:38;;;;;;;7.77;6.53;;;;;;;;;;5078596;28;20517;-75
2022/04/30 07:54:07;;;;;;;9.30;7.13;;;;;;;;;;5070507;28;20468;-76
2022/04/30 07:56:35;;;;;;;7.77;6.50;;;;;;;;;;5072172;28;20460;-74
2022/04/30 07:59:02;;;;;;;8.17;6.03;;;;;;;;;;5084592;28;20488;-74
2022/04/30 08:01:30;;;;;;;7.80;5.70;;;;;;;;;;5081711;28;20468;-73
2022/04/30 08:03:57;;;;;;;7.53;5.70;;;;;;;;;;5074663;28;20487;-74
2022/04/30 08:06:25;;;;;;;5.37;4.30;;;;;;;;;;5067703;28;20465;-76
2022/04/30 08:08:52;;;;;;;8.17;5.73;;;;;;;;;;5080066;28;20544;-76
2022/04/30 08:11:20;;;;;;;8.27;6.23;;;;;;;;;;5088854;28;20756;-76
2022/04/30 08:13:47;;;;;;;7.60;5.50;;;;;;;;;;5073425;28;20448;-74
2022/04/30 08:16:14;;;;;;;7.13;6.40;;;;;;;;;;5085264;28;20437;-74
2022/04/30 08:18:41;;;;;;;8.50;6.30;;;;;;;;;;5076597;28;20435;-74
2022/04/30 08:21:09;;;;;;;8.37;5.80;;;;;;;;;;5083793;28;20456;-74
2022/04/30 08:23:37;;;;;;;5.20;4.53;;;;;;;;;;5087791;28;20443;-74
2022/04/30 08:26:05;;;;;;;7.33;4.87;;;;;;;;;;5065528;28;20934;-75
2022/04/30 08:28:32;;;;;;;7.80;5.63;;;;;;;;;;5072591;28;20930;-74
2022/04/30 08:30:59;;;;;;;10.17;6.53;;;;;;;;;;5084240;28;20443;-73
2022/04/30 08:33:28;;;;;;;7.60;5.10;;;;;;;;;;5076884;28;20533;-74
2022/04/30 08:35:56;;;;;;;10.17;4.90;;;;;;;;;;5086030;28;20466;-75
2022/04/30 08:38:23;;;;;;;6.27;4.50;;;;;;;;;;5092493;28;20429;-75
2022/04/30 08:40:51;;;;;;;7.50;5.90;;;;;;;;;;5092458;28;20447;-74
2022/04/30 08:43:21;;;;;;;6.23;5.13;;;;;;;;;;5091354;28;20442;-75
2022/04/30 08:45:48;;;;;;;6.33;5.40;;;;;;;;;;5085189;28;20478;-74
2022/04/30 08:48:16;;;;;;;7.23;5.67;;;;;;;;;;5078087;28;20534;-75
2022/04/30 08:50:44;;;;;;;6.67;5.97;;;;;;;;;;5073174;28;20441;-78
2022/04/30 08:53:11;;;;;;;9.97;5.70;;;;;;;;;;5076800;28;20533;-75
2022/04/30 08:55:38;;;;;;;6.57;5.13;;;;;;;;;;5079764;28;20520;-76
2022/04/30 08:58:07;;;;;;;8.23;5.57;;;;;;;;;;5076304;28;20521;-74
2022/04/30 09:00:39;;;;;;;6.73;5.27;;;;;;;;;;5087883;28;20430;-75
2022/04/30 09:03:07;;;;;;;7.40;5.20;;;;;;;;;;5074520;28;20441;-77
2022/04/30 09:05:36;;;;;;;6.67;4.40;;;;;;;;;;5077054;28;20520;-77
2022/04/30 09:08:05;;;;;;;6.30;4.90;;;;;;;;;;5092651;28;20438;-75
2022/04/30 09:10:33;;;;;;;8.30;5.13;;;;;;;;;;5069651;28;20438;-74
2022/04/30 09:13:09;;;;;;;5.83;5.23;;;;;;;;;;5086981;28;20974;-76
2022/04/30 09:15:37;;;;;;;5.80;4.67;;;;;;;;;;5092303;28;20436;-77
2022/04/30 09:18:06;;;;;;;6.97;5.23;;;;;;;;;;5078343;28;20534;-76
2022/04/30 09:20:42;;;;;;;5.30;4.60;;;;;;;;;;5073958;28;20446;-81
2022/04/30 09:23:09;;;;;;;6.70;5.43;;;;;;;;;;5073695;28;20438;-81
2022/04/30 09:25:37;;;;;;;5.20;4.70;;;;;;;;;;5087404;28;20475;-80
2022/04/30 09:28:04;;;;;;;5.97;4.33;;;;;;;;;;5076685;28;20447;-72
2022/04/30 09:30:33;;;;;;;7.20;5.70;;;;;;;;;;5067798;28;20454;-73
2022/04/30 09:33:01;;;;;;;6.73;4.93;;;;;;;;;;5091334;28;20913;-75
2022/04/30 09:38:13;;;;;;;7.90;4.33;;;;;;;;;;5087585;28;20464;-75
2022/04/30 09:40:40;;;;;;;6.67;4.83;;;;;;;;;;5073859;28;20477;-77
2022/04/30 09:43:16;;;;;;;6.70;4.90;;;;;;;;;;5075389;28;21000;-75
2022/04/30 09:45:46;;;;;;;6.00;4.27;;;;;;;;;;5091140;28;20467;-75
2022/04/30 09:53:57;;;;;;;4.20;3.80;;;;;;;;;;5087794;28;20874;-76
2022/04/30 09:56:34;;;;;;;3.80;3.07;;;;;;;;;;5067789;28;20447;-75
2022/04/30 09:59:04;;;;;;;3.37;3.07;;;;;;;;;;5086132;28;20815;-74
2022/04/30 10:01:34;;;;;;;4.30;3.60;;;;;;;;;;5091259;28;20440;-72
2022/04/30 10:04:06;;;;;;;6.13;3.93;;;;;;;;;;5090565;28;20436;-75
2022/04/30 10:06:34;;;;;;;4.90;4.23;;;;;;;;;;5090717;28;20976;-74
2022/04/30 10:09:01;;;;;;;4.93;3.93;;;;;;;;;;5091121;28;20434;-75
2022/04/30 10:11:34;;;;;;;3.47;3.20;;;;;;;;;;5091236;28;20531;-76
2022/04/30 10:14:08;;;;;;;5.73;3.97;;;;;;;;;;5091666;28;20440;-74
2022/04/30 10:16:37;;;;;;;5.07;3.80;;;;;;;;;;5091232;28;20505;-76
2022/04/30 10:19:13;;;;;;;5.00;4.00;;;;;;;;;;5091325;28;20447;-76
2022/04/30 10:21:40;;;;;;;5.27;3.90;;;;;;;;;;5090091;28;20476;-74
2022/04/30 10:24:12;;;;;;;6.97;3.50;;;;;;;;;;5091519;28;20515;-77
2022/04/30 10:26:39;;;;;;;5.60;4.03;;;;;;;;;;5090495;28;20495;-76
2022/04/30 10:29:12;;;;;;;4.37;3.77;;;20.40;1.00;;;;;;5091241;28;20519;-76
2022/04/30 10:31:46;;;;;;;5.67;4.40;;;13.70;1.00;;;;;;5090548;28;20486;-76
2022/04/30 10:34:14;;;;;;;6.87;4.10;;;13.70;1.00;;;;;;5091282;28;20527;-76
2022/04/30 10:36:41;;;;;;;4.80;4.20;;;13.90;1.00;;;;;;5090749;28;20436;-76
2022/04/30 10:39:19;;;;;;;4.93;4.47;;;14.00;99.90;;;;;;5091116;28;20902;-75
2022/04/30 10:41:50;;;;;;;5.70;4.37;;;13.90;1.00;;;;;;5090601;28;20441;-75
2022/04/30 10:44:29;;;;;;;5.10;3.33;;;13.90;99.90;;;;;;5090900;28;20433;-75
2022/04/30 10:47:08;;;;;;;4.33;3.93;;;14.20;99.90;;;;;;5082226;28;20433;-74
2022/04/30 10:49:35;;;;;;;4.50;3.83;;;14.20;1.00;;;;;;5087991;28;20443;-75
2022/04/30 10:52:03;;;;;;;4.17;3.67;;;14.20;1.00;;;;;;5090721;28;20451;-75
2022/04/30 10:54:31;;;;;;;5.13;3.90;;;14.50;99.90;;;;;;5081430;28;20861;-73
2022/04/30 10:57:00;;;;;;;3.07;2.77;;;14.60;99.90;;;;;;5083545;28;20451;-74
2022/04/30 10:59:27;;;;;;;3.60;3.30;;;14.50;1.00;;;;;;5085672;28;20469;-77
2022/04/30 11:01:54;;;;;;;3.73;3.00;;;14.70;99.90;;;;;;5089959;28;20840;-75
2022/04/30 11:04:24;;;;;;;4.37;3.63;;;14.80;99.90;;;;;;5090953;28;20444;-75
2022/04/30 11:06:53;;;;;;;3.00;2.67;;;14.60;99.90;;;;;;5090253;28;20574;-75
2022/04/30 11:09:21;;;;;;;6.00;3.73;;;14.10;99.90;;;;;;5090916;28;20511;-75
2022/04/30 11:11:49;;;;;;;3.10;2.80;;;13.90;1.00;;;;;;5089964;28;20522;-75
2022/04/30 11:14:17;;;;;;;2.97;2.67;;;13.70;99.90;;;;;;5090771;28;20929;-76
2022/04/30 11:16:46;;;;;;;4.80;1.73;;;13.40;99.90;;;;;;5092653;28;20749;-75
2022/04/30 11:19:14;;;;;;;2.40;2.20;;;13.40;99.90;;;;;;5094317;28;20446;-75
2022/04/30 11:21:44;;;;;;;2.63;2.10;;;13.40;8.20;;;;;;5093649;28;20526;-75
2022/04/30 11:24:12;;;;;;;4.80;2.40;;;13.50;99.90;;;;;;5094587;28;20926;-75
2022/04/30 11:26:40;;;;;;;1.67;1.40;;;13.70;99.90;;;;;;5093703;28;20618;-75
2022/04/30 11:29:10;;;;;;;2.67;2.30;;;13.80;12.00;;;;;;5094792;28;20520;-75
2022/04/30 11:31:38;;;;;;;2.53;2.10;;;13.90;99.90;;;;;;5093278;28;20978;-75
2022/04/30 11:34:09;;;;;;;2.70;2.00;;;;;;;;;;5094335;28;20523;-75
2022/04/30 11:36:42;;;;;;;2.67;2.17;;;13.80;1.00;;;;;;5093686;28;20611;-75
2022/04/30 11:39:10;;;;;;;2.93;2.00;;;13.90;34.00;;;;;;5094372;28;20440;-74
2022/04/30 11:41:40;;;;;;;2.20;2.00;;;13.70;1.00;;;;;;5092967;28;20918;-75
2022/04/30 11:44:09;;;;;;;2.30;2.03;;;13.60;99.90;;;;;;5093810;28;20442;-75
2022/04/30 11:46:37;;;;;;;2.60;2.27;;;13.70;1.00;;;;;;5067128;28;20479;-75
2022/04/30 11:49:14;;;;;;;2.73;2.50;;;13.80;1.00;;;;;;5093944;28;20493;-74
2022/04/30 11:51:44;;;;;;;2.67;2.20;;;13.80;1.00;;;;;;5093015;28;20474;-76
2022/04/30 11:54:12;;;;;;;2.30;2.10;;;13.70;99.90;;;;;;5087737;28;20503;-75
2022/04/30 11:56:42;;;;;;;2.70;2.33;;;13.70;99.90;;;;;;5066990;28;20450;-74
2022/04/30 11:59:09;;;;;;;2.37;2.17;;;13.60;1.00;;;;;;5085079;28;20973;-74
2022/04/30 12:01:38;;;;;;;3.07;2.40;;;13.80;99.90;;;;;;5092761;28;20448;-73
2022/04/30 12:04:09;;;;;;;2.63;2.20;;;13.70;1.00;;;;;;5093228;28;20448;-75
2022/04/30 12:06:37;;;;;;;2.40;2.20;;;13.90;99.90;;;;;;5092635;28;20468;-73
2022/04/30 12:09:15;;;;;;;2.23;2.03;;;14.10;1.00;;;;;;5093220;28;20444;-74
2022/04/30 12:11:43;;;;;;;3.30;2.80;;;;;;;;;;5092605;28;20460;-74
2022/04/30 12:14:11;;;;;;;4.03;2.83;;;;;;;;;;5093072;28;20445;-74
2022/04/30 12:16:40;;;;;;;4.40;2.93;;;14.20;99.90;;;;;;5092220;28;20535;-74
2022/04/30 12:24:59;;;;;;;6.83;2.60;;;13.80;1.00;;;;;;5093718;28;20767;-74
2022/04/30 12:27:28;;;;;;;2.60;2.20;;;14.20;6.60;;;;;;5093280;28;20455;-74
2022/04/30 12:30:08;;;;;;;4.13;2.23;;;14.60;1.00;;;;;;5080803;28;20498;-74
2022/04/30 12:32:45;;;;;;;3.60;2.50;;;14.80;99.90;;;;;;5092562;28;20441;-74
2022/04/30 12:35:14;;;;;;;2.67;2.47;;;14.90;99.90;;;;;;5093693;28;20429;-75
2022/04/30 12:37:41;;;;;;;3.80;2.60;;;14.50;99.90;;;;;;5092710;28;20439;-75
2022/04/30 12:40:10;;;;;;;2.90;2.40;;;14.20;1.00;;;;;;5093280;28;20443;-74
2022/04/30 12:42:37;;;;;;;4.20;2.63;;;14.00;99.90;;;;;;5092059;28;20447;-74
2022/04/30 12:45:05;;;;;;;2.05;1.90;;;13.90;1.00;;;;;;5093404;28;20441;-75
2022/04/30 12:47:32;;;;;;;2.50;2.10;;;14.00;99.90;;;;;;5092534;28;20199;-75
2022/04/30 12:49:59;;;;;;;2.73;1.90;;;14.10;1.00;;;;;;5093268;28;20441;-76
2022/04/30 12:52:27;;;;;;;2.77;2.10;;;14.30;1.00;;;;;;5092512;28;20484;-75
2022/04/30 12:54:53;;;;;;;2.60;2.23;;;14.50;1.00;;;;;;5080306;28;20474;-75
2022/04/30 12:57:22;;;;;;;2.80;2.40;;;14.70;99.90;;;;;;5088408;28;20547;-75
2022/04/30 12:59:50;;;;;;;2.17;1.87;;;14.60;99.90;;;;;;5087315;28;20468;-74
2022/04/30 13:02:17;;;;;;;2.83;1.90;;;14.70;99.90;;;;;;5092347;28;20841;-73
2022/04/30 13:04:44;;;;;;;1.60;1.40;;;14.50;55.40;;;;;;5091591;28;20443;-75
2022/04/30 13:07:11;;;;;;;3.03;2.83;;;14.40;99.90;;;;;;5092336;28;20522;-74
2022/04/30 13:15:09;;;;;;;2.63;2.43;;;13.90;99.90;;;;;;5092427;28;20459;-75
2022/04/30 13:17:36;;;;;;;3.30;2.70;;;14.20;1.00;;;;;;5091883;28;20502;-74
2022/04/30 13:20:05;;;;;;;3.10;2.53;;;14.10;1.00;;;;;;5092465;28;20843;-74
2022/04/30 13:22:32;;;;;;;3.27;3.00;;;14.30;1.00;;;;;;5091719;28;20443;-74
2022/04/30 13:25:00;;;;;;;5.20;3.70;;;14.30;1.00;;;;;;5092471;28;20495;-74
2022/04/30 13:27:28;;;;;;;5.60;3.43;;;14.10;1.00;;;;;;5092496;28;20584;-73
2022/04/30 13:29:55;;;;;;;5.80;3.90;;;14.50;1.00;;;;;;5079883;28;20449;-74
2022/04/30 13:32:22;;;;;;;5.23;3.80;;;;;;;;;;5091848;28;20478;-74
2022/04/30 13:34:49;;;;;;;3.70;3.40;;;;;;;;;;5091593;28;21360;-76
2022/04/30 13:37:16;;;;;;;4.40;4.00;;;14.70;99.90;;;;;;5093228;28;20450;-73
2022/04/30 13:39:43;;;;;;;5.40;3.07;;;14.00;99.90;;;;;;5091496;28;20441;-74
2022/04/30 13:42:10;;;;;;;5.70;4.53;;;14.50;1.00;;;;;;5091653;28;20445;-74
2022/04/30 13:44:38;;;;;;;4.17;3.37;;;14.60;99.90;;;;;;5091651;28;20502;-73
2022/04/30 13:47:06;;;;;;;5.97;3.70;;;14.60;99.90;;;;;;5092196;28;20524;-75
2022/04/30 13:49:34;;;;;;;5.37;4.03;;;14.60;99.90;;;;;;5091008;28;20520;-73
2022/04/30 13:52:02;;;;;;;6.50;4.20;;;14.70;99.90;;;;;;5091741;28;20449;-73
2022/04/30 13:54:30;;;;;;;7.10;4.40;;;14.70;99.90;;;;;;5082912;28;20439;-72
2022/04/30 13:56:57;;;;;;;5.80;4.73;;;14.60;99.90;;;;;;5084041;28;20463;-74
2022/04/30 13:59:25;;;;;;;6.03;4.73;;;15.00;99.90;;;;;;5086611;28;20473;-75
2022/04/30 14:01:54;;;;;;;5.67;4.10;;;14.50;99.90;;;;;;5090789;28;20905;-75
2022/04/30 14:04:21;;;;;;;5.63;4.40;;;15.00;99.90;;;;;;5091436;28;20834;-74
2022/04/30 14:06:48;;;;;;;5.30;4.07;;;15.10;83.40;;;;;;5090813;28;20512;-74
2022/04/30 14:09:14;;;;;;;5.30;4.80;;;15.20;62.90;;;;;;5091376;28;20529;-73
2022/04/30 14:11:41;;;;;;;5.43;3.80;;;15.10;1.00;;;;;;5090481;28;20523;-73
2022/04/30 14:16:54;;;;;;;4.77;4.20;;;14.90;1.00;;;;;;5090502;28;20424;-75
2022/04/30 14:19:21;;;;;;;3.83;3.47;;;14.90;31.40;;;;;;5090951;28;20445;-76
2022/04/30 14:21:48;;;;;;;6.43;4.43;;;14.80;30.10;;;;;;5090135;28;20534;-74
2022/04/30 14:24:15;;;;;;;5.13;4.10;;;14.80;99.90;;;;;;5091545;28;20435;-74
2022/04/30 14:26:42;;;;;;;6.50;5.03;;;15.30;1.00;;;;;;5090132;28;20490;-74
2022/04/30 14:29:12;;;;;;;6.10;4.10;;;15.10;1.00;;;;;;5082324;28;20445;-75
2022/04/30 14:31:39;;;;;;;7.23;5.30;;;;;;;;;;5087550;28;20552;-75
2022/04/30 14:34:08;;;;;;;6.40;4.70;;;;;;;;;;5090510;28;20535;-75
2022/04/30 14:36:35;;;;;;;4.73;4.10;;;15.70;1.00;;;;;;5089861;28;20433;-74
2022/04/30 14:39:03;;;;;;;4.53;3.43;;;17.10;99.90;;;;;;5091041;28;20437;-74
2022/04/30 14:41:30;;;;;;;3.80;3.30;;;;;;;;;;5089949;28;20448;-73
2022/04/30 14:43:58;;;;;;;3.20;2.87;;;;;;;;;;5090883;28;20448;-75
2022/04/30 14:46:25;;;;;;;4.50;3.73;;;17.20;99.90;;;;;;5091277;28;20476;-75
2022/04/30 14:48:52;;;;;;;3.83;3.23;;;16.60;99.90;;;;;;5090248;28;20536;-74
2022/04/30 14:51:20;;;;;;;4.20;3.30;;;;;;;;;;5094306;28;20556;-74
2022/04/30 14:53:47;;;;;;;5.00;3.10;;;17.20;99.90;;;;;;5091648;28;20439;-74
2022/04/30 14:56:15;;;;;;;4.60;3.40;;;17.10;99.90;;;;;;5081369;28;20449;-74
2022/04/30 14:58:42;;;;;;;7.60;3.23;;;17.40;99.90;;;;;;5089766;28;20561;-75
2022/04/30 15:01:09;;;;;;;4.03;3.30;;;17.50;99.90;;;;;;5094485;28;20445;-74